DL3NBY Weather Reports


Display with metric or nautical units.
time (UTC)temp
F
wind
direction
speed
MPH
gust
MPH
rain 1hr
in
rain 24hr
in
rain mn
in
humidity
%
barometer
mb
20240227103606 48 19 3.0 12.0 0.00 0.00 0.00 81 1011.8
20240227102603 47 83 3.0 8.0 0.00 0.00 0.00 82 1011.8
20240227101603 47 17 2.0 9.0 0.00 0.00 0.00 82 1011.6
20240227100556 47 76 2.0 10.0 0.00 0.00 0.00 82 1011.7
20240227095553 47 128 3.0 8.0 0.00 0.00 0.00 83 1011.6
20240227094550 47 90 1.0 5.0 0.00 0.00 0.00 83 1011.7
20240227093547 46 90 2.0 4.0 0.00 0.00 0.00 83 1011.6
20240227092604 46 42 2.0 6.0 0.00 0.00 0.00 84 1011.6
20240227091540 46 109 2.0 7.0 0.00 0.00 0.00 84 1011.6
20240227090537 46 61 2.0 6.0 0.00 0.00 0.00 85 1011.7
20240227084531 45 125 2.0 6.0 0.00 0.00 0.00 85 1011.6
20240227083527 45 52 2.0 8.0 0.00 0.00 0.00 86 1011.6
20240227082524 44 29 2.0 6.0 0.00 0.00 0.00 87 1011.5
20240227081521 44 79 2.0 6.0 0.00 0.00 0.00 87 1011.5
20240227080538 44 100 1.0 4.0 0.00 0.00 0.00 88 1011.4
20240227075615 44 63 1.0 4.0 0.00 0.00 0.00 88 1011.4
20240227073629 44 352 1.0 4.0 0.00 0.00 0.00 88 1011.3
20240227072625 43 52 2.0 8.0 0.00 0.00 0.00 89 1011.2
20240227071602 43 90 1.0 5.0 0.00 0.00 0.00 89 1011.1
20240227070636 43 20 1.0 7.0 0.00 0.00 0.00 89 1011.0
20240227065553 43 313 1.0 5.0 0.00 0.00 0.00 89 1011.0
20240227064550 43 12 1.0 6.0 0.00 0.00 0.00 90 1010.9
20240227063546 43 68 0.0 2.0 0.00 0.00 0.00 90 1010.8
20240227062543 43 56 1.0 5.0 0.00 0.00 0.00 90 1010.6
20240227061540 43 337 1.0 4.0 0.00 0.00 0.00 90 1010.5
20240227052524 42 38 1.0 4.0 0.00 0.00 0.00 91 1010.0
20240227051541 42 293 0.0 3.0 0.00 0.00 0.00 92 1009.9
20240227045658 42 344 1.0 4.0 0.00 0.00 0.00 91 1009.8
20240227044611 42 315 0.0 3.0 0.00 0.00 0.00 92 1009.7
20240227042605 42 0 0.0 3.0 0.00 0.00 0.00 91 1009.4
20240227041602 42 34 1.0 4.0 0.00 0.00 0.00 90 1009.1
20240227040559 42 0 0.0 5.0 0.00 0.00 0.00 91 1009.1
20240227035556 42 264 1.0 4.0 0.00 0.00 0.00 91 1009.0
20240227034553 43 0.0 2.0 0.00 0.00 0.00 90 1009.0
20240227031543 42 66 1.0 4.0 0.00 0.00 0.00 90 1008.8
20240227030539 41 0.0 0.0 0.00 0.00 0.00 91 1008.7
20240227023530 43 0.0 2.0 0.00 0.00 0.00 88 1008.6
20240227022526 43 90 0.0 3.0 0.00 0.00 0.00 88 1008.8
20240227015517 44 70 1.0 3.0 0.00 0.00 0.00 86 1008.4
20240227013631 42 344 1.0 5.0 0.00 0.00 0.00 87 1008.6
20240227005558 41 0.0 0.0 0.00 0.00 0.00 90 1008.4
20240227004555 42 0.0 2.0 0.00 0.00 0.00 87 1008.3
20240227003552 42 0.0 2.0 0.00 0.00 0.00 87 1008.1
20240227002549 42 0.0 2.0 0.00 0.00 0.00 88 1008.1
20240227000543 42 0.0 1.0 0.00 0.00 0.00 90 1008.1
20240226235600 43 0.0 0.0 0.00 0.00 0.00 88 1008.0
20240226234620 44 343 0.0 4.0 0.00 0.00 0.00 88 1007.8
20240226232530 44 0.0 2.0 0.00 0.00 0.00 89 1007.8
20240226231527 44 0.0 0.0 0.00 0.00 0.00 88 1007.8
20240226223614 44 0.0 0.0 0.00 0.00 0.00 90 1007.2
20240226222611 44 0 0.0 2.0 0.00 0.00 0.00 90 1007.2
20240226221607 43 0.0 0.0 0.00 0.00 0.00 91 1007.2
20240226220604 43 0.0 0.0 0.00 0.00 0.00 92 1007.2
20240226215601 43 0.0 2.0 0.00 0.00 0.00 93 1006.9
20240226214555 43 0.0 0.0 0.00 0.00 0.00 93 1006.8
20240226213552 43 270 0.0 2.0 0.00 0.00 0.00 93 1006.8
20240226212549 43 0.0 0.0 0.00 0.00 0.00 93 1006.5
20240226211546 42 0.0 0.0 0.00 0.00 0.00 94 1006.4
20240226210542 42 0.0 0.0 0.00 0.00 0.00 94 1006.3
20240226205539 42 0.0 2.0 0.00 0.00 0.00 94 1006.1
20240226202530 43 0.0 2.0 0.00 0.00 0.00 90 1005.8
20240226200523 45 0.0 2.0 0.00 0.00 0.00 87 1005.5
20240226195520 46 0.0 1.0 0.00 0.00 0.00 84 1005.2
20240226193613 47 0 0.0 2.0 0.00 0.00 0.00 80 1005.0
20240226192630 47 0 0.0 4.0 0.00 0.00 0.00 79 1004.9
20240226191607 47 0.0 0.0 0.00 0.00 0.00 78 1004.7
20240226185641 48 0.0 0.0 0.00 0.00 0.00 76 1004.4
20240226182551 47 68 1.0 4.0 0.00 0.00 0.00 77 1003.8
20240226180545 44 0.0 1.0 0.00 0.00 0.00 83 1003.7
20240226175545 44 0.0 2.0 0.00 0.00 0.00 88 1003.6
20240226174559 44 0.0 1.0 0.00 0.00 0.00 86 1003.5
20240226173535 45 0.0 0.0 0.00 0.00 0.00 84 1003.4
20240226172532 46 0.0 0.0 0.00 0.00 0.00 84 1003.3
20240226170555 47 0.0 0.0 0.00 0.00 0.00 81 1003.0
20240226165552 48 270 0.0 2.0 0.00 0.00 0.00 81 1003.0
20240226164549 49 0.0 0.0 0.00 0.00 0.00 74 1002.8
20240226163548 50 0.0 0.0 0.00 0.00 0.00 71 1002.7
20240226162542 50 0.0 0.0 0.00 0.00 0.00 68 1002.5
20240226161539 50 0.0 0.0 0.00 0.00 0.00 68 1002.3
20240226160556 51 0.0 2.0 0.00 0.00 0.00 68 1002.1
20240226154559 51 0.0 1.0 0.00 0.00 0.00 68 1001.8
20240226153556 51 90 0.0 3.0 0.00 0.00 0.00 68 1001.8
20240226152553 52 75 0.0 2.0 0.00 0.00 0.00 68 1001.8
20240226150547 52 0.0 2.0 0.00 0.00 0.00 69 1001.5
20240226141530 52 0.0 2.0 0.00 0.00 0.00 68 1001.4
20240226140547 52 0 0.0 2.0 0.00 0.00 0.00 68 1001.4
20240226134521 52 90 1.0 4.0 0.00 0.00 0.00 66 1001.3
20240226133537 52 45 1.0 3.0 0.00 0.00 0.00 65 1001.2
20240226130608 52 90 0.0 3.0 0.00 0.00 0.00 66 1001.0
20240226124601 51 76 1.0 3.0 0.00 0.00 0.00 66 1000.9
20240226115545 50 77 1.0 4.0 0.00 0.00 0.00 67 1000.5
20240226113539 50 76 2.0 6.0 0.00 0.00 0.00 68 1000.5
20240226111533 49 63 1.0 2.0 0.00 0.00 0.00 70 1000.5
20240226105526 48 180 0.0 2.0 0.00 0.00 0.00 74 1000.8